Fisherville, PA

11:38 AM EST on December 10, 2019 (GMT -0500)
Enders/Fisherville | | Change Station

Elev 581 ft 40.50 °N, 76.87 °W | Updated 3 seconds ago

Rain
Rain
51.6 °F
Feels Like 51.6 °F
N
0
Wind Variable Wind from WSW
Gusts 0.0 mph

Today
High -- | Low -- °F
--% Chance of Precip.
Yesterday
High -- | Low -- °F
Precip. -- in
Pressure 29.84 in
Visibility 4.0 miles
Clouds Few 5000 ft
Overcast 6500 ft
Dew Point 51 °F
Humidity 99%
Rainfall 0.07 in
Snow Depth Not available.
7:19 AM 4:40 PM
Waxing Gibbous, 97% visible
METAR KCXY 101556Z 32004KT 4SM -RA FEW050 OVC065 11/08 A2983 RMK AO2 RAB01E37B56 SLP104 P0000 T01110083
Pressure 29.84 in
Visibility 4.0 miles
Clouds Few 5000 ft
Overcast 6500 ft
Dew Point 51 °F
Humidity 99%
Rainfall 0.07 in
Snow Depth Not available.
7:19 AM 4:40 PM
Waxing Gibbous, 97% visible
METAR KCXY 101556Z 32004KT 4SM -RA FEW050 OVC065 11/08 A2983 RMK AO2 RAB01E37B56 SLP104 P0000 T01110083

Get Severe Weather Alerts

Thanks for signing up!

Be on the lookout for a verification email in your inbox.

You'll start receiving the daily forecast at 6 AM.

×

10-Day Weather Forecast

Almanac

Astronomy

Dec. 10, 2019 Rise Set
Actual Time
Civil Twilight
Nautical Twilight
Astronomical Twilight
Moon
Length of Visible Light
Length of Day
Tomorrow will be .
, % of the Moon is Illuminated

Today's Extremes

State Highs State Lows

Community

WunderPhotos

Category 6

Welcome to Category 6. This is the collective home for Weather Underground's featured writeups by Dr. Jeff Masters (right), Bob Henson (left), Chris Burt, and other regular contributors.

Nearby

Air Quality

  Air Quality AQ Index Pollutant
Not available.

Snow Depth

Station Depth Elevation

Earthquake Activity

City Distance Mag. Time & Date
Minimum magnitude displayed is 2.5.

Coastal Water Temperatures

Place Temperature

Stations

Nearby Weather Stations

Station Location Temp. Windchill Dew Point Humidity Wind Precip. Elev Updated Type
                   

Watches & Warnings

There are currently no watches in effect.